Time;durP1;ratioP1;P1;durP2;ratioP2;P2;SDS_P1;SDS_P2;PMS_P1;PMS_P2;Temp;Humidity;BMP_temperature;BMP_pressure;BME280_temperature;BME280_humidity;BME280_pressure;Samples;Min_cycle;Max_cycle;Signal;HPM_P1;HPM_P2
2021/12/03 12:44:40;;;;;;;2.72;1.60;;;14.10;80.70;;;;;;2291090;62;30505;-71
2021/12/03 12:56:11;;;;;;;2.85;1.42;;;14.20;80.60;;;;;;2285154;62;30095;-72
2021/12/03 14:00:15;;;;;;;2.42;1.30;;;14.90;76.60;;;;;;2279068;62;30286;-72
2021/12/03 14:42:00;;;;;;;2.28;1.35;;;15.10;75.10;;;;;;2284982;62;30189;-70
2021/12/03 14:44:52;;;;;;;2.42;1.40;;;15.10;75.10;;;;;;2278383;62;30167;-70
2021/12/03 14:55:35;;;;;;;2.53;1.60;;;15.10;74.60;;;;;;2278504;62;31015;-72
2021/12/03 14:58:12;;;;;;;3.65;1.60;;;15.10;75.10;;;;;;2284849;62;30463;-72
2021/12/03 15:08:31;;;;;;;3.17;1.50;;;14.90;75.20;;;;;;2271252;62;30140;-72
2021/12/03 15:21:49;;;;;;;2.35;1.60;;;14.90;75.20;;;;;;2284550;62;30303;-74
2021/12/03 15:32:34;;;;;;;;;;;15.00;75.20;;;;;;2285025;62;30227;-73
2021/12/03 15:35:17;;;;;;;3.25;1.58;;;15.00;74.20;;;;;;2284653;62;30212;-73
2021/12/03 16:04:59;;;;;;;2.97;1.55;;;14.90;75.10;;;;;;2283585;62;30162;-72
2021/12/03 16:16:14;;;;;;;1.63;1.20;;;15.10;75.10;;;;;;2250070;63;30242;-71
2021/12/03 16:53:29;;;;;;;;;;;16.00;72.90;;;;;;2284408;62;30423;-72
2021/12/03 16:56:09;;;;;;;;;;;16.00;72.60;;;;;;2284766;62;30859;-73
2021/12/03 16:58:35;;;;;;;;;;;16.00;72.70;;;;;;2284745;62;30226;-71
2021/12/03 17:01:08;;;;;;;;;;;16.10;72.60;;;;;;2285877;62;30052;-71
2021/12/03 17:11:34;;;;;;;;;;;16.20;72.30;;;;;;2285940;62;30411;-71
2021/12/03 17:14:10;;;;;;;;;;;16.20;72.40;;;;;;2285545;62;32022;-72
2021/12/03 17:44:36;;;;;;;;;;;16.30;71.80;;;;;;2285848;62;30237;-73
2021/12/03 17:54:57;;;;;;;;;;;16.40;72.00;;;;;;2285964;62;30271;-71
2021/12/03 17:59:50;;;;;;;;;;;16.40;72.10;;;;;;2285854;62;30238;-72
2021/12/03 18:02:26;;;;;;;;;;;16.30;72.00;;;;;;2285432;62;30195;-73
2021/12/03 18:10:47;;;;;;;;;;;16.10;72.70;;;;;;2285544;62;30450;-73
2021/12/03 18:13:35;;;;;;;;;;;16.10;72.90;;;;;;2285641;62;30262;-73
2021/12/03 18:56:03;;;;;;;;;;;16.60;72.30;;;;;;2277125;62;30129;-73
2021/12/03 18:58:30;;;;;;;;;;;16.60;72.20;;;;;;2282400;62;30222;-73
2021/12/03 19:00:57;;;;;;;;;;;16.60;72.10;;;;;;2285043;62;30250;-73
2021/12/03 19:11:21;;;;;;;;;;;16.60;72.00;;;;;;2285455;62;30798;-73
2021/12/03 19:13:47;;;;;;;;;;;16.70;72.10;;;;;;2278549;62;30980;-73
2021/12/03 19:16:15;;;;;;;;;;;16.70;72.20;;;;;;2277729;62;30085;-72
2021/12/03 19:18:45;;;;;;;;;;;16.70;72.20;;;;;;2285346;62;30278;-73
2021/12/03 19:21:14;;;;;;;;;;;16.70;72.20;;;;;;2277741;62;30041;-73
2021/12/03 19:23:39;;;;;;;;;;;16.60;72.20;;;;;;2285160;62;30809;-73
2021/12/03 19:26:05;;;;;;;;;;;16.70;72.30;;;;;;2285132;62;30388;-73
2021/12/03 19:28:32;;;;;;;;;;;16.60;72.40;;;;;;2279274;62;30747;-73
2021/12/03 19:30:58;;;;;;;;;;;16.60;72.50;;;;;;2277084;62;30840;-73
2021/12/03 19:33:24;;;;;;;;;;;16.60;72.50;;;;;;2279825;62;30969;-73
2021/12/03 19:35:50;;;;;;;;;;;16.60;72.40;;;;;;2276858;62;30182;-73
2021/12/03 19:38:17;;;;;;;;;;;16.60;72.40;;;;;;2277042;62;30132;-73
2021/12/03 19:40:52;;;;;;;;;;;16.60;72.50;;;;;;2276799;62;30172;-73
2021/12/03 19:43:29;;;;;;;;;;;16.60;72.50;;;;;;2270262;62;30198;-73
2021/12/03 19:46:00;;;;;;;;;;;16.50;72.30;;;;;;2276828;62;30419;-72
2021/12/03 19:48:34;;;;;;;;;;;16.60;72.50;;;;;;2276771;62;30217;-72
2021/12/03 19:51:00;;;;;;;;;;;16.60;72.40;;;;;;2276945;62;30952;-72
2021/12/03 19:53:28;;;;;;;;;;;16.60;72.30;;;;;;2276874;62;30360;-72
2021/12/03 19:55:54;;;;;;;;;;;16.60;72.40;;;;;;2276593;62;30068;-72
2021/12/03 19:58:22;;;;;;;;;;;16.60;72.30;;;;;;2276980;62;30194;-72
2021/12/03 20:00:49;;;;;;;;;;;16.60;72.40;;;;;;2269670;62;30185;-72
2021/12/03 20:03:15;;;;;;;;;;;16.60;72.40;;;;;;2269300;62;31043;-73
2021/12/03 20:05:41;;;;;;;;;;;16.50;72.30;;;;;;2269135;62;30192;-72
2021/12/03 20:08:08;;;;;;;;;;;16.50;72.30;;;;;;2276668;62;30240;-72
2021/12/03 20:10:38;;;;;;;;;;;16.60;72.40;;;;;;2276556;62;31408;-72
2021/12/03 20:13:06;;;;;;;;;;;16.70;72.30;;;;;;2269607;62;30105;-72
2021/12/03 20:15:37;;;;;;;;;;;16.80;72.10;;;;;;2276760;62;30328;-72
2021/12/03 20:20:58;;;;;;;;;;;17.00;71.90;;;;;;2266839;62;30518;-72
2021/12/03 20:23:40;;;;;;;;;;;17.10;71.70;;;;;;2276422;62;30568;-71
2021/12/03 20:26:21;;;;;;;;;;;17.20;71.50;;;;;;2276732;62;30277;-71
2021/12/03 20:29:06;;;;;;;;;;;17.20;71.30;;;;;;2277100;62;30249;-71
2021/12/03 20:31:35;;;;;;;;;;;17.30;71.10;;;;;;2284666;62;30872;-71
2021/12/03 20:34:08;;;;;;;;;;;17.30;70.80;;;;;;2285336;62;30168;-71
2021/12/03 20:36:48;;;;;;;;;;;17.30;71.80;;;;;;2286206;62;30225;-71
2021/12/03 20:49:56;;;;;;;;;;;17.50;70.80;;;;;;2286256;62;30288;-71
2021/12/03 21:11:15;;;;;;;;;;;17.60;70.20;;;;;;2286160;62;30321;-73
2021/12/03 21:13:41;;;;;;;;;;;17.60;70.00;;;;;;2285800;62;30234;-72
2021/12/03 21:16:16;;;;;;;;;;;17.60;70.10;;;;;;2285955;62;30277;-73
2021/12/03 21:23:55;;;;;;;;;;;17.60;70.00;;;;;;2270538;62;30318;-72
2021/12/03 21:26:23;;;;;;;;;;;17.60;70.00;;;;;;2277497;62;30542;-73
2021/12/03 21:31:42;;;;;;;;;;;17.50;69.90;;;;;;2277638;62;30035;-72
2021/12/03 21:39:55;;;;;;;;;;;17.50;69.80;;;;;;2277759;62;30222;-72
2021/12/03 21:42:22;;;;;;;;;;;17.50;69.90;;;;;;2277637;62;30184;-73
2021/12/03 21:44:47;;;;;;;;;;;17.50;69.90;;;;;;2277427;62;30199;-72
2021/12/03 21:47:13;;;;;;;;;;;17.50;70.00;;;;;;2277308;62;29985;-74
2021/12/03 21:49:39;;;;;;;;;;;17.50;69.90;;;;;;2277271;62;30439;-74
2021/12/03 21:52:05;;;;;;;;;;;17.50;69.80;;;;;;2277669;62;30049;-74
2021/12/03 21:54:30;;;;;;;;;;;17.50;69.90;;;;;;2277332;62;30913;-75
2021/12/03 21:57:05;;;;;;;;;;;17.50;69.80;;;;;;2283631;62;30525;-72
2021/12/03 21:59:31;;;;;;;;;;;17.50;69.90;;;;;;2285841;62;30209;-74
2021/12/03 22:01:58;;;;;;;;;;;17.50;70.00;;;;;;2285572;62;30577;-74
2021/12/03 22:04:23;;;;;;;;;;;17.50;70.10;;;;;;2283053;62;30261;-74
2021/12/03 22:06:49;;;;;;;;;;;17.50;70.40;;;;;;2285475;62;31729;-78
2021/12/03 22:09:15;;;;;;;;;;;17.40;70.90;;;;;;2285319;62;30387;-78
2021/12/03 22:11:43;;;;;;;;;;;17.40;71.20;;;;;;2285739;62;30302;-77
2021/12/03 22:14:08;;;;;;;;;;;17.30;71.00;;;;;;2285458;62;30199;-76
2021/12/03 22:16:34;;;;;;;;;;;17.20;71.20;;;;;;2285522;62;30506;-78
2021/12/03 22:19:00;;;;;;;;;;;17.30;71.30;;;;;;2285662;62;30099;-76
2021/12/03 22:21:29;;;;;;;;;;;17.30;72.60;;;;;;2285715;62;30249;-78
2021/12/03 22:23:54;;;;;;;;;;;17.40;71.90;;;;;;2285313;62;30154;-79
2021/12/03 22:26:20;;;;;;;;;;;17.40;72.50;;;;;;2285470;62;31854;-87
2021/12/03 22:28:46;;;;;;;;;;;17.50;71.40;;;;;;2285079;62;30069;-80
2021/12/03 22:31:13;;;;;;;;;;;17.50;73.70;;;;;;2285284;62;30595;-79
2021/12/03 22:33:40;;;;;;;;;;;17.60;70.50;;;;;;2280870;62;30925;-75
2021/12/03 22:36:06;;;;;;;;;;;17.50;70.70;;;;;;2277325;62;30168;-75
2021/12/03 22:38:31;;;;;;;;;;;17.50;70.60;;;;;;2276470;62;30098;-74
2021/12/03 22:40:57;;;;;;;;;;;17.50;70.50;;;;;;2279043;62;30020;-85
2021/12/03 22:43:23;;;;;;;;;;;17.60;70.50;;;;;;2286429;62;30193;-91
2021/12/03 22:45:59;;;;;;;;;;;17.60;70.40;;;;;;2279234;62;30522;-92
2021/12/03 22:51:03;;;;;;;;;;;17.50;70.30;;;;;;2286409;62;30106;-92
2021/12/03 22:53:29;;;;;;;;;;;17.50;70.20;;;;;;2279038;62;30257;-91
2021/12/03 22:55:55;;;;;;;;;;;17.60;70.20;;;;;;2282678;62;30699;-85
2021/12/03 22:58:20;;;;;;;;;;;17.60;70.50;;;;;;2276693;62;30147;-85
2021/12/03 23:00:46;;;;;;;;;;;17.60;70.30;;;;;;2269826;62;30330;-80
2021/12/03 23:03:12;;;;;;;;;;;17.50;70.20;;;;;;2277136;62;30941;-80
2021/12/03 23:05:38;;;;;;;;;;;17.50;70.30;;;;;;2269695;62;30132;-81
2021/12/03 23:08:04;;;;;;;;;;;17.50;70.40;;;;;;2269711;62;30460;-82
2021/12/03 23:10:30;;;;;;;;;;;17.50;70.30;;;;;;2269922;62;30344;-87
2021/12/03 23:12:56;;;;;;;;;;;17.50;70.40;;;;;;2269465;62;31331;-83
2021/12/03 23:15:22;;;;;;;;;;;17.50;70.50;;;;;;2277074;62;30484;-81
2021/12/03 23:17:48;;;;;;;;;;;17.50;70.30;;;;;;2277072;62;30350;-84
2021/12/03 23:20:14;;;;;;;;;;;17.50;70.30;;;;;;2276764;62;30349;-83
2021/12/03 23:22:39;;;;;;;;;;;17.40;70.30;;;;;;2277029;62;31029;-82
2021/12/03 23:25:07;;;;;;;;;;;17.40;70.30;;;;;;2277009;62;31691;-81
2021/12/03 23:27:33;;;;;;;;;;;17.40;70.20;;;;;;2276717;62;30013;-80
2021/12/03 23:29:58;;;;;;;;;;;17.40;70.10;;;;;;2276592;62;30364;-80
2021/12/03 23:32:26;;;;;;;;;;;17.40;70.30;;;;;;2278612;62;30964;-80
2021/12/03 23:34:52;;;;;;;;;;;17.40;70.30;;;;;;2284904;62;31751;-81
2021/12/03 23:37:20;;;;;;;;;;;17.40;70.20;;;;;;2273048;62;31128;-80
2021/12/03 23:39:46;;;;;;;;;;;17.40;70.40;;;;;;2276073;62;30135;-82
2021/12/03 23:42:12;;;;;;;;;;;17.40;70.30;;;;;;2279998;62;30753;-84
